Randalia, Iowa
Current Conditions -  °F | °C
As of 8:35 AM on Monday 20 Oct 2014 (Local Time) from KOLZ Reporting Station
Clear Clear  
Wind Chill: 42°   Ceiling: Unl
Heat Index: 46°   Visibility: 10mi
Dew Point: 43°   Wind: 8mph
Humidity: 87%   Direction: 320°NW
Pressure: 29.98"   Gusts: NA
Location:  42.86°N, 91.89°W
Report Text: KOLZ 201335Z AUTO 32007KT 10SM CLR 08/06 A2998 RMK AO2
Loading
Personal Weather Stations






























Interactive Weather Map
Tropical Storm Tracking
New forecast layout! Learn more

10-Day Weather Forecast

Advertisements
Track Severe Weather on mobile